createdAt,value
2018-03-04T00:00:10.428Z,76.84
2018-03-04T00:02:38.756Z,76.99
2018-03-04T00:05:07.058Z,77.31
2018-03-04T00:07:35.393Z,77.89
2018-03-04T00:10:03.653Z,78.29
2018-03-04T00:12:31.960Z,77.80
2018-03-04T00:15:00.748Z,77.92
2018-03-04T00:17:29.102Z,77.02
2018-03-04T00:19:57.385Z,77.65
2018-03-04T00:22:37.392Z,78.40
2018-03-04T00:25:05.744Z,77.62
2018-03-04T00:27:34.040Z,77.39
2018-03-04T00:30:02.371Z,76.78
2018-03-04T00:32:30.717Z,77.25
2018-03-04T00:34:58.988Z,77.36
2018-03-04T00:37:27.293Z,77.58
2018-03-04T00:39:55.588Z,77.30
2018-03-04T00:42:23.928Z,77.41
2018-03-04T00:44:52.241Z,77.12
2018-03-04T00:47:20.500Z,76.79
2018-03-04T00:49:48.836Z,76.91
2018-03-04T00:52:17.135Z,77.04
2018-03-04T00:54:45.621Z,77.05
2018-03-04T00:57:14.185Z,76.80
2018-03-04T00:59:42.569Z,76.42
2018-03-04T01:02:11.155Z,76.60
2018-03-04T01:04:39.452Z,76.56
2018-03-04T01:07:07.723Z,76.18
2018-03-04T01:09:36.074Z,76.14
2018-03-04T01:12:04.896Z,74.67
2018-03-04T01:14:33.184Z,74.71
2018-03-04T01:17:01.466Z,74.35
2018-03-04T01:19:29.799Z,74.96
2018-03-04T01:21:58.080Z,75.04
2018-03-04T01:24:26.380Z,75.15
2018-03-04T01:26:54.661Z,75.64
2018-03-04T01:29:22.981Z,75.23
2018-03-04T01:31:51.272Z,75.62
2018-03-04T01:34:19.575Z,75.91
2018-03-04T01:36:47.924Z,75.77
2018-03-04T01:39:16.271Z,75.59
2018-03-04T01:41:44.727Z,75.83
2018-03-04T01:44:13.006Z,76.10
2018-03-04T01:46:41.332Z,76.04
2018-03-04T01:49:09.620Z,76.38
2018-03-04T01:51:49.797Z,76.60
2018-03-04T01:54:18.051Z,76.42
2018-03-04T01:56:46.356Z,76.23
2018-03-04T01:59:14.628Z,75.94
2018-03-04T02:01:42.920Z,76.07
2018-03-04T02:04:11.190Z,75.98
2018-03-04T02:06:39.512Z,75.69
2018-03-04T02:09:07.771Z,75.65
2018-03-04T02:11:36.083Z,76.10
2018-03-04T02:14:05.248Z,75.92
2018-03-04T02:16:33.595Z,75.91
2018-03-04T02:19:01.868Z,75.86
2018-03-04T02:21:30.172Z,76.36
2018-03-04T02:23:58.464Z,76.27
2018-03-04T02:26:27.397Z,76.12
2018-03-04T02:28:55.672Z,76.06
2018-03-04T02:31:24.002Z,75.57
2018-03-04T02:33:52.270Z,75.33
2018-03-04T02:36:20.580Z,73.69
2018-03-04T02:38:48.858Z,74.06
2018-03-04T02:41:17.157Z,75.30
2018-03-04T02:43:45.488Z,75.62
2018-03-04T02:46:13.840Z,75.96
2018-03-04T02:48:42.142Z,75.73
2018-03-04T02:51:10.420Z,75.84
2018-03-04T02:53:38.733Z,75.44
2018-03-04T02:56:07.124Z,75.68
2018-03-04T02:58:35.443Z,75.83
2018-03-04T03:01:03.722Z,76.22
2018-03-04T03:03:32.420Z,76.99
2018-03-04T03:06:00.701Z,78.03
2018-03-04T03:08:28.968Z,77.69
2018-03-04T03:10:57.256Z,77.34
2018-03-04T03:13:25.559Z,77.10
2018-03-04T03:15:53.830Z,77.07
2018-03-04T03:18:22.129Z,76.93
2018-03-04T03:20:50.431Z,76.91
2018-03-04T03:23:18.721Z,76.82
2018-03-04T03:25:47.025Z,76.83
2018-03-04T03:28:15.351Z,77.02
2018-03-04T03:30:43.619Z,77.14
2018-03-04T03:33:11.925Z,77.04
2018-03-04T03:35:40.613Z,77.17
2018-03-04T03:38:08.929Z,76.92
2018-03-04T03:40:37.217Z,76.70
2018-03-04T03:43:05.763Z,76.35
2018-03-04T03:45:34.859Z,76.36
2018-03-04T03:48:03.756Z,76.10
2018-03-04T03:50:32.068Z,76.19
2018-03-04T03:53:00.365Z,75.74
2018-03-04T03:55:28.725Z,76.55
2018-03-04T03:57:57.499Z,76.58
2018-03-04T04:00:25.892Z,76.02
2018-03-04T04:02:54.180Z,75.29
2018-03-04T04:05:22.528Z,76.01
2018-03-04T04:07:50.832Z,76.19
2018-03-04T04:10:19.130Z,76.51
2018-03-04T04:12:47.412Z,76.56
2018-03-04T04:15:15.723Z,76.29
2018-03-04T04:17:44.010Z,76.37
2018-03-04T04:20:12.311Z,76.57
2018-03-04T04:22:41.310Z,76.53
2018-03-04T04:25:09.772Z,76.66
2018-03-04T04:27:38.043Z,76.55
2018-03-04T04:30:06.404Z,75.87
2018-03-04T04:32:34.680Z,76.21
2018-03-04T04:35:02.979Z,76.07
2018-03-04T04:37:31.295Z,75.01
2018-03-04T04:39:59.622Z,75.84
2018-03-04T04:42:27.932Z,76.08
2018-03-04T04:44:56.243Z,75.62
2018-03-04T04:47:24.558Z,76.09
2018-03-04T04:49:52.828Z,76.35
2018-03-04T04:52:21.177Z,76.66
2018-03-04T04:54:49.475Z,76.82
2018-03-04T04:57:17.770Z,76.37
2018-03-04T04:59:46.047Z,76.38
2018-03-04T05:02:14.334Z,76.98
2018-03-04T05:04:43.216Z,77.07
2018-03-04T05:07:11.529Z,76.33
2018-03-04T05:09:39.785Z,76.55
2018-03-04T05:12:08.387Z,76.69
2018-03-04T05:14:36.667Z,76.80
2018-03-04T05:17:05.766Z,76.64
2018-03-04T05:19:34.048Z,76.62
2018-03-04T05:22:02.369Z,76.82
2018-03-04T05:24:30.827Z,76.96
2018-03-04T05:26:59.280Z,76.58
2018-03-04T05:29:27.554Z,76.21
2018-03-04T05:31:55.877Z,76.48
2018-03-04T05:34:24.159Z,76.74
2018-03-04T05:36:52.463Z,76.56
2018-03-04T05:39:20.755Z,76.62
2018-03-04T05:41:49.872Z,76.44
2018-03-04T05:44:18.194Z,76.48
2018-03-04T05:46:46.481Z,76.86
2018-03-04T05:49:15.373Z,77.05
2018-03-04T05:51:43.672Z,77.08
2018-03-04T05:54:11.980Z,77.33
2018-03-04T05:56:40.254Z,76.52
2018-03-04T05:59:08.547Z,76.60
2018-03-04T06:01:36.825Z,76.26
2018-03-04T06:04:05.383Z,75.98
2018-03-04T06:06:33.656Z,76.30
2018-03-04T06:09:02.349Z,75.74
2018-03-04T06:11:31.489Z,74.75
2018-03-04T06:13:59.780Z,75.57
2018-03-04T06:16:28.053Z,76.13
2018-03-04T06:18:56.357Z,76.68
2018-03-04T06:21:24.623Z,76.65
2018-03-04T06:23:53.110Z,76.60
2018-03-04T06:26:21.375Z,76.84
2018-03-04T06:28:49.682Z,77.01
2018-03-04T06:31:17.967Z,77.14
2018-03-04T06:33:46.271Z,77.31
2018-03-04T06:36:14.565Z,77.19
2018-03-04T06:38:42.900Z,77.72
2018-03-04T06:41:11.211Z,77.55
2018-03-04T06:43:39.499Z,78.24
2018-03-04T06:46:07.860Z,78.28
2018-03-04T06:48:36.189Z,77.70
2018-03-04T06:51:04.711Z,77.38
2018-03-04T06:53:32.999Z,77.58
2018-03-04T06:56:01.360Z,77.98
2018-03-04T06:58:29.661Z,78.11
2018-03-04T07:00:57.972Z,77.40
2018-03-04T07:03:26.244Z,77.11
2018-03-04T07:05:54.542Z,77.32
2018-03-04T07:08:22.804Z,76.96
2018-03-04T07:10:51.136Z,76.75
2018-03-04T07:13:19.415Z,77.51
2018-03-04T07:15:47.753Z,77.66
2018-03-04T07:18:16.031Z,78.35
2018-03-04T07:20:44.335Z,78.76
2018-03-04T07:23:12.627Z,78.46
2018-03-04T07:25:40.925Z,78.32
2018-03-04T07:28:09.187Z,78.18
2018-03-04T07:30:37.505Z,77.70
2018-03-04T07:33:06.003Z,77.77
2018-03-04T07:35:34.320Z,77.79
2018-03-04T07:38:02.595Z,76.93
2018-03-04T07:40:30.904Z,76.74
2018-03-04T07:42:59.220Z,76.96
2018-03-04T07:45:27.499Z,77.19
2018-03-04T07:47:55.807Z,76.46
2018-03-04T07:50:24.083Z,76.48
2018-03-04T07:52:52.394Z,77.87
2018-03-04T07:55:21.141Z,78.51
2018-03-04T07:57:49.436Z,77.76
2018-03-04T08:00:17.720Z,77.14
2018-03-04T08:02:46.129Z,76.99
2018-03-04T08:05:15.053Z,78.81
2018-03-04T08:07:43.352Z,79.75
2018-03-04T08:10:11.644Z,80.54
2018-03-04T08:12:39.945Z,81.18
2018-03-04T08:15:08.228Z,81.74
2018-03-04T08:17:36.551Z,82.40
2018-03-04T08:20:04.827Z,82.92
2018-03-04T08:22:33.160Z,83.17
2018-03-04T08:28:17.740Z,82.40
2018-03-04T08:30:47.020Z,81.78
2018-03-04T08:33:15.324Z,81.28
2018-03-04T08:35:43.629Z,80.40
2018-03-04T08:38:12.173Z,79.56
2018-03-04T08:40:40.457Z,78.89
2018-03-04T08:43:08.751Z,78.24
2018-03-04T08:45:37.155Z,79.20
2018-03-04T08:48:05.501Z,80.35
2018-03-04T08:50:33.816Z,80.66
2018-03-04T08:53:02.447Z,80.70
2018-03-04T08:55:30.759Z,79.24
2018-03-04T08:57:59.033Z,78.75
2018-03-04T09:00:27.367Z,77.24
2018-03-04T09:02:55.639Z,76.74
2018-03-04T09:05:23.962Z,76.47
2018-03-04T09:07:52.299Z,75.60
2018-03-04T09:10:20.612Z,75.34
2018-03-04T09:12:48.894Z,74.85
2018-03-04T09:15:17.183Z,74.86
2018-03-04T09:17:45.484Z,74.80
2018-03-04T09:20:13.780Z,74.31
2018-03-04T09:22:42.059Z,74.46
2018-03-04T09:25:10.371Z,74.80
2018-03-04T09:27:38.684Z,74.43
2018-03-04T09:30:07.031Z,74.71
2018-03-04T09:32:35.329Z,73.94
2018-03-04T09:35:03.743Z,73.52
2018-03-04T09:37:32.057Z,73.29
2018-03-04T09:40:00.344Z,73.42
2018-03-04T09:42:28.637Z,73.14
2018-03-04T09:44:56.956Z,72.89
2018-03-04T09:47:25.268Z,73.19
2018-03-04T09:49:53.583Z,73.02
2018-03-04T09:52:21.975Z,72.28
2018-03-04T09:54:50.209Z,72.77
2018-03-04T09:57:18.501Z,71.99
2018-03-04T09:59:46.806Z,71.75
2018-03-04T10:02:15.107Z,71.90
2018-03-04T10:04:43.381Z,70.85
2018-03-04T10:07:11.739Z,71.57
2018-03-04T10:09:40.006Z,71.72
2018-03-04T10:12:08.324Z,71.42
2018-03-04T10:14:36.587Z,70.70
2018-03-04T10:17:05.701Z,70.29
2018-03-04T10:19:34.883Z,70.60
2018-03-04T10:22:04.243Z,70.17
2018-03-04T10:24:32.508Z,70.36
2018-03-04T10:27:00.868Z,70.20
2018-03-04T10:29:29.146Z,69.42
2018-03-04T10:31:57.439Z,68.78
2018-03-04T10:34:26.376Z,69.51
2018-03-04T10:36:54.655Z,68.69
2018-03-04T10:39:22.949Z,68.32
2018-03-04T10:41:51.304Z,68.26
2018-03-04T10:44:19.561Z,67.81
2018-03-04T10:46:48.348Z,67.76
2018-03-04T10:49:16.620Z,68.04
2018-03-04T10:51:44.917Z,68.15
2018-03-04T10:54:13.253Z,68.32
2018-03-04T10:56:41.549Z,67.94
2018-03-04T10:59:09.953Z,68.21
2018-03-04T11:01:44.681Z,68.09
2018-03-04T11:04:12.972Z,69.02
2018-03-04T11:06:41.262Z,70.51
2018-03-04T11:09:09.792Z,70.64
2018-03-04T11:11:38.902Z,69.88
2018-03-04T11:14:07.225Z,68.70
2018-03-04T11:16:35.512Z,68.79
2018-03-04T11:19:04.584Z,69.10
2018-03-04T11:21:32.897Z,69.27
2018-03-04T11:24:01.196Z,69.15
2018-03-04T11:26:29.495Z,69.85
2018-03-04T11:28:57.921Z,68.88
2018-03-04T11:31:26.183Z,67.96
2018-03-04T11:33:54.481Z,67.54
2018-03-04T11:36:22.752Z,68.10
2018-03-04T11:38:51.104Z,67.94
2018-03-04T11:41:19.436Z,67.87
2018-03-04T11:43:47.749Z,67.14
2018-03-04T11:46:16.056Z,67.12
2018-03-04T11:48:44.341Z,66.72
2018-03-04T11:51:12.647Z,66.17
2018-03-04T11:53:40.944Z,65.97
2018-03-04T11:56:09.228Z,65.35
2018-03-04T11:58:37.550Z,67.19
2018-03-04T12:01:06.585Z,68.58
2018-03-04T12:03:34.892Z,69.22
2018-03-04T12:06:03.193Z,69.08
2018-03-04T12:08:31.479Z,69.45
2018-03-04T12:10:59.785Z,68.76
2018-03-04T12:13:28.071Z,67.07
2018-03-04T12:15:56.362Z,66.84
2018-03-04T12:18:24.660Z,67.11
2018-03-04T12:20:53.811Z,67.40
2018-03-04T12:23:22.130Z,66.71
2018-03-04T12:25:50.467Z,66.25
2018-03-04T12:28:18.774Z,65.82
2018-03-04T12:30:47.127Z,66.08
2018-03-04T12:33:15.412Z,65.46
2018-03-04T12:35:43.761Z,64.52
2018-03-04T12:38:12.312Z,65.38
2018-03-04T12:40:41.539Z,66.50
2018-03-04T12:43:09.866Z,65.94
2018-03-04T12:45:38.148Z,65.66
2018-03-04T12:48:06.469Z,64.85
2018-03-04T12:50:34.756Z,64.64
2018-03-04T12:53:03.064Z,64.73
2018-03-04T12:55:31.394Z,64.56
2018-03-04T12:57:59.678Z,65.01
2018-03-04T13:00:27.965Z,65.68
2018-03-04T13:02:56.259Z,66.03
2018-03-04T13:05:24.595Z,65.62
2018-03-04T13:07:52.878Z,64.56
2018-03-04T13:10:21.157Z,64.42
2018-03-04T13:12:49.528Z,64.39
2018-03-04T13:15:18.727Z,63.82
2018-03-04T13:17:47.051Z,62.84
2018-03-04T13:20:15.441Z,61.82
2018-03-04T13:22:46.318Z,61.74
2018-03-04T13:25:14.644Z,60.78
2018-03-04T13:27:42.980Z,59.53
2018-03-04T13:30:11.304Z,59.60
2018-03-04T13:32:40.582Z,58.36
2018-03-04T13:35:08.850Z,58.40
2018-03-04T13:37:37.174Z,56.28
2018-03-04T13:40:05.455Z,57.63
2018-03-04T13:42:33.759Z,57.96
2018-03-04T13:45:02.016Z,56.50
2018-03-04T13:47:30.293Z,54.58
2018-03-04T13:49:58.576Z,55.21
2018-03-04T13:52:26.848Z,54.20
2018-03-04T13:54:55.135Z,53.74
2018-03-04T13:57:23.401Z,52.18
2018-03-04T13:59:51.716Z,52.24
2018-03-04T14:02:19.963Z,52.31
2018-03-04T14:04:48.244Z,52.61
2018-03-04T14:07:16.558Z,53.38
2018-03-04T14:09:44.881Z,52.71
2018-03-04T14:12:13.324Z,53.31
2018-03-04T14:14:41.623Z,54.05
2018-03-04T14:17:09.910Z,54.36
2018-03-04T14:19:38.217Z,54.53
2018-03-04T14:22:06.497Z,54.65
2018-03-04T14:24:34.787Z,54.34
2018-03-04T14:27:03.392Z,54.99
2018-03-04T14:29:31.719Z,55.25
2018-03-04T14:32:00.151Z,55.36
2018-03-04T14:34:28.454Z,55.35
2018-03-04T14:36:56.824Z,55.44
2018-03-04T14:39:25.753Z,56.02
2018-03-04T14:41:53.972Z,56.35
2018-03-04T14:44:22.295Z,55.68
2018-03-04T14:46:50.611Z,55.92
2018-03-04T14:49:18.943Z,55.73
2018-03-04T14:51:47.263Z,56.20
2018-03-04T14:54:15.576Z,55.80
2018-03-04T14:56:43.888Z,55.61
2018-03-04T14:59:12.234Z,56.10
2018-03-04T15:01:40.553Z,56.27
2018-03-04T15:04:08.844Z,56.49
2018-03-04T15:06:37.191Z,56.84
2018-03-04T15:09:05.499Z,57.09
2018-03-04T15:11:33.854Z,56.89
2018-03-04T15:14:02.197Z,56.61
2018-03-04T15:16:30.537Z,56.56
2018-03-04T15:18:58.866Z,57.31
2018-03-04T15:21:27.197Z,60.41
2018-03-04T15:23:55.689Z,61.21
2018-03-04T15:26:23.969Z,61.90
2018-03-04T15:28:52.269Z,62.31
2018-03-04T15:31:20.608Z,62.52
2018-03-04T15:33:48.875Z,62.69
2018-03-04T15:36:17.251Z,63.23
2018-03-04T15:38:45.531Z,63.41
2018-03-04T15:41:13.856Z,63.26
2018-03-04T15:43:42.213Z,62.88
2018-03-04T15:46:10.544Z,63.34
2018-03-04T15:48:38.849Z,63.29
2018-03-04T15:51:07.139Z,63.15
2018-03-04T15:53:35.443Z,63.85
2018-03-04T15:56:04.948Z,63.74
2018-03-04T15:58:33.378Z,63.01
2018-03-04T16:01:01.654Z,62.78
2018-03-04T16:03:30.000Z,62.96
2018-03-04T16:05:58.348Z,62.91
2018-03-04T16:08:26.696Z,62.57
2018-03-04T16:10:54.985Z,62.80
2018-03-04T16:13:23.361Z,62.83
2018-03-04T16:15:51.654Z,62.89
2018-03-04T16:18:19.990Z,62.76
2018-03-04T16:20:48.288Z,62.72
2018-03-04T16:23:16.613Z,62.65
2018-03-04T16:25:44.918Z,62.65
2018-03-04T16:28:13.226Z,62.76
2018-03-04T16:30:41.548Z,63.03
2018-03-04T16:33:09.896Z,63.13
2018-03-04T16:35:38.235Z,62.95
2018-03-04T16:38:06.632Z,62.67
2018-03-04T16:40:35.756Z,62.73
2018-03-04T16:43:04.777Z,62.54
2018-03-04T16:45:33.688Z,61.89
2018-03-04T16:48:01.997Z,61.91
2018-03-04T16:50:30.316Z,62.22
2018-03-04T16:52:58.677Z,62.62
2018-03-04T16:55:26.975Z,62.82
2018-03-04T16:57:55.288Z,62.90
2018-03-04T17:00:23.624Z,62.80
2018-03-04T17:02:51.919Z,62.78
2018-03-04T17:05:20.238Z,62.49
2018-03-04T17:07:48.522Z,62.79
2018-03-04T17:10:16.812Z,62.50
2018-03-04T17:12:45.087Z,62.10
2018-03-04T17:15:13.405Z,62.36
2018-03-04T17:17:41.696Z,62.53
2018-03-04T17:20:10.008Z,62.62
2018-03-04T17:22:38.293Z,62.94
2018-03-04T17:25:06.653Z,62.82
2018-03-04T17:27:34.953Z,63.07
2018-03-04T17:30:03.268Z,62.50
2018-03-04T17:32:31.586Z,62.71
2018-03-04T17:34:59.894Z,63.47
2018-03-04T17:37:28.215Z,63.58
2018-03-04T17:39:56.515Z,63.59
2018-03-04T17:42:24.815Z,63.26
2018-03-04T17:44:53.172Z,62.88
2018-03-04T17:47:21.448Z,62.68
2018-03-04T17:49:49.756Z,63.78
2018-03-04T17:52:18.166Z,63.74
2018-03-04T17:54:46.461Z,63.15
2018-03-04T17:57:14.768Z,63.55
2018-03-04T17:59:43.065Z,63.23
2018-03-04T18:02:11.368Z,63.21
2018-03-04T18:04:39.688Z,63.04
2018-03-04T18:07:07.995Z,63.22
2018-03-04T18:09:36.312Z,63.32
2018-03-04T18:12:04.601Z,63.17
2018-03-04T18:14:32.920Z,62.45
2018-03-04T18:17:01.240Z,61.94
2018-03-04T18:19:29.543Z,62.39
2018-03-04T18:21:57.860Z,62.77
2018-03-04T18:24:26.161Z,62.51
2018-03-04T18:26:54.450Z,62.27
2018-03-04T18:29:22.809Z,62.03
2018-03-04T18:31:51.105Z,62.15
2018-03-04T18:34:19.492Z,62.46
2018-03-04T18:36:47.753Z,62.75
2018-03-04T18:39:16.014Z,62.55
2018-03-04T18:41:44.313Z,62.53
2018-03-04T18:44:12.595Z,62.77
2018-03-04T18:46:40.919Z,63.23
2018-03-04T18:49:09.213Z,63.64
2018-03-04T18:51:37.509Z,63.73
2018-03-04T18:54:05.825Z,63.98
2018-03-04T18:56:34.933Z,64.12
2018-03-04T18:59:03.329Z,64.23
2018-03-04T19:01:31.599Z,64.64
2018-03-04T19:03:59.897Z,64.56
2018-03-04T19:06:28.183Z,64.55
2018-03-04T19:08:56.518Z,64.91
2018-03-04T19:11:24.824Z,64.79
2018-03-04T19:13:53.128Z,65.06
2018-03-04T19:16:21.405Z,66.11
2018-03-04T19:18:49.711Z,68.29
2018-03-04T19:21:18.003Z,68.72
2018-03-04T19:23:46.503Z,68.01
2018-03-04T19:26:14.800Z,67.60
2018-03-04T19:28:43.141Z,67.90
2018-03-04T19:31:11.427Z,67.59
2018-03-04T19:33:39.728Z,68.19
2018-03-04T19:36:08.003Z,67.96
2018-03-04T19:38:37.104Z,68.62
2018-03-04T19:41:05.390Z,69.59
2018-03-04T19:43:33.754Z,69.29
2018-03-04T19:46:02.083Z,69.76
2018-03-04T19:48:30.445Z,69.75
2018-03-04T19:50:58.807Z,69.74
2018-03-04T19:53:27.141Z,70.08
2018-03-04T19:55:55.517Z,70.80
2018-03-04T19:58:23.986Z,71.04
2018-03-04T20:00:52.374Z,71.98
2018-03-04T20:03:20.729Z,72.01
2018-03-04T20:05:49.128Z,73.07
2018-03-04T20:08:17.413Z,72.79
2018-03-04T20:10:45.774Z,72.55
2018-03-04T20:13:14.429Z,72.88
2018-03-04T20:15:42.987Z,73.01
2018-03-04T20:18:11.614Z,74.49
2018-03-04T20:20:39.952Z,74.05
2018-03-04T20:23:08.249Z,74.70
2018-03-04T20:25:36.584Z,74.71
2018-03-04T20:28:04.875Z,74.34
2018-03-04T20:30:33.308Z,74.13
2018-03-04T20:33:01.593Z,74.40
2018-03-04T20:35:29.921Z,74.39
2018-03-04T20:37:58.742Z,74.86
2018-03-04T20:40:27.020Z,74.96
2018-03-04T20:42:55.378Z,75.62
2018-03-04T20:45:23.628Z,76.12
2018-03-04T20:47:51.946Z,75.40
2018-03-04T20:50:20.249Z,76.68
2018-03-04T20:52:51.161Z,77.23
2018-03-04T20:55:19.422Z,77.15
2018-03-04T20:57:47.725Z,77.16
2018-03-04T21:00:16.016Z,77.34
2018-03-04T21:02:44.405Z,77.93
2018-03-04T21:05:12.685Z,77.97
2018-03-04T21:07:40.976Z,77.76
2018-03-04T21:10:09.298Z,77.83
2018-03-04T21:12:37.617Z,77.87
2018-03-04T21:15:06.876Z,77.33
2018-03-04T21:17:35.175Z,76.77
2018-03-04T21:20:03.770Z,76.05
2018-03-04T21:22:32.061Z,75.91
2018-03-04T21:25:00.339Z,75.72
2018-03-04T21:27:28.665Z,75.43
2018-03-04T21:29:58.490Z,75.17
2018-03-04T21:32:26.782Z,75.17
2018-03-04T21:34:55.066Z,75.03
2018-03-04T21:37:23.342Z,74.81
2018-03-04T21:39:51.607Z,75.24
2018-03-04T21:42:19.907Z,76.00
2018-03-04T21:44:48.168Z,76.08
2018-03-04T21:47:17.086Z,76.73
2018-03-04T21:49:45.787Z,76.82
2018-03-04T21:52:14.096Z,76.45
2018-03-04T21:54:42.457Z,75.92
2018-03-04T21:57:10.769Z,76.18
2018-03-04T21:59:39.133Z,76.28
2018-03-04T22:02:07.430Z,76.40
2018-03-04T22:04:35.752Z,76.20
2018-03-04T22:07:04.120Z,76.46
2018-03-04T22:09:32.389Z,76.48
2018-03-04T22:12:00.646Z,76.01
2018-03-04T22:14:28.927Z,76.29
2018-03-04T22:16:57.207Z,76.56
2018-03-04T22:19:25.545Z,76.42
2018-03-04T22:21:53.754Z,76.75
2018-03-04T22:24:22.117Z,76.61
2018-03-04T22:26:50.387Z,76.68
2018-03-04T22:29:18.784Z,76.51
2018-03-04T22:31:47.127Z,76.90
2018-03-04T22:34:15.371Z,77.37
2018-03-04T22:36:43.691Z,77.34
2018-03-04T22:39:12.077Z,77.10
2018-03-04T22:41:40.359Z,77.24
2018-03-04T22:44:08.654Z,76.72
2018-03-04T22:46:36.949Z,77.93
2018-03-04T22:49:05.779Z,75.47
2018-03-04T22:51:34.116Z,73.19
2018-03-04T22:54:02.376Z,73.27
2018-03-04T22:56:30.678Z,72.76
2018-03-04T22:58:58.961Z,73.60
2018-03-04T23:01:27.751Z,73.83
2018-03-04T23:03:56.143Z,74.71
2018-03-04T23:06:24.412Z,75.34
2018-03-04T23:08:52.697Z,75.46
2018-03-04T23:11:21.077Z,75.51
2018-03-04T23:13:49.909Z,75.80
2018-03-04T23:16:18.223Z,76.30
2018-03-04T23:18:53.432Z,76.28
2018-03-04T23:21:21.698Z,76.03
2018-03-04T23:23:49.962Z,75.68
2018-03-04T23:26:18.260Z,75.92
2018-03-04T23:28:46.505Z,75.83
2018-03-04T23:31:14.805Z,75.75
2018-03-04T23:33:43.083Z,75.56
2018-03-04T23:36:11.369Z,75.33
2018-03-04T23:38:39.647Z,75.17
2018-03-04T23:41:07.924Z,75.36
2018-03-04T23:43:36.195Z,75.84
2018-03-04T23:46:04.479Z,75.80
2018-03-04T23:48:32.771Z,75.43
2018-03-04T23:51:01.071Z,75.64
2018-03-04T23:53:29.358Z,75.64
2018-03-04T23:55:57.611Z,75.44
2018-03-04T23:58:26.559Z,75.37
